SWA971 KOAK-KPDX
Flight info
| Callsign | SWA971 |
|---|---|
| Flight time | 1h 22m |
| Altitude | 38000 |
| Route | OAK6 OAK GRTFL MACHU TMBRS4 |
| Aircraft | B738/M-SDE2E3FGHIRWXY/LB1 |
Departure
| Time | 2026-05-08 03:38 |
|---|---|
| Airport | San Francisco Bay Oakland International Airport (KOAK) |
Arrival
| Time | 2026-05-08 05:00 |
|---|---|
| Airport | Portland International Airport (KPDX) |
| Time | Latitude | Longitude | Altitude | Speed | Heading |
|---|---|---|---|---|---|
| 2026-05-08 03:20 | 37.70929 | -122.21343 | 8 ft | 0 kts | 126° |
| 2026-05-08 03:26 | 37.70942 | -122.21366 | 9 ft | 4 kts | 133° |
| 2026-05-08 03:26 | 37.70962 | -122.21388 | 10 ft | 4 kts | 150° |
| 2026-05-08 03:26 | 37.70985 | -122.21396 | 9 ft | 4 kts | 196° |
| 2026-05-08 03:27 | 37.70993 | -122.21393 | 9 ft | 1 kts | 216° |
| 2026-05-08 03:29 | 37.70981 | -122.21404 | 10 ft | 5 kts | 216° |
| 2026-05-08 03:30 | 37.70904 | -122.21477 | 9 ft | 7 kts | 218° |
| 2026-05-08 03:30 | 37.70861 | -122.21582 | 8 ft | 7 kts | 251° |
| 2026-05-08 03:31 | 37.70775 | -122.21693 | 10 ft | 12 kts | 219° |
| 2026-05-08 03:31 | 37.70631 | -122.21763 | 8 ft | 13 kts | 152° |
| 2026-05-08 03:32 | 37.70565 | -122.21676 | 8 ft | 14 kts | 129° |
| 2026-05-08 03:32 | 37.70503 | -122.21582 | 8 ft | 14 kts | 130° |
| 2026-05-08 03:32 | 37.70443 | -122.21493 | 8 ft | 13 kts | 130° |
| 2026-05-08 03:32 | 37.70382 | -122.21412 | 9 ft | 13 kts | 145° |
| 2026-05-08 03:33 | 37.70303 | -122.21366 | 9 ft | 12 kts | 159° |
| 2026-05-08 03:33 | 37.70240 | -122.21357 | 8 ft | 2 kts | 194° |
| 2026-05-08 03:33 | 37.70235 | -122.21359 | 8 ft | 0 kts | 199° |
| 2026-05-08 03:36 | 37.70232 | -122.21360 | 8 ft | 3 kts | 200° |
| 2026-05-08 03:36 | 37.70188 | -122.21397 | 8 ft | 9 kts | 219° |
| 2026-05-08 03:36 | 37.70181 | -122.21469 | 10 ft | 9 kts | 299° |
| 2026-05-08 03:37 | 37.70197 | -122.21498 | 8 ft | 0 kts | 308° |
| 2026-05-08 03:37 | 37.70226 | -122.21543 | 8 ft | 32 kts | 310° |
| 2026-05-08 03:37 | 37.70536 | -122.22008 | 9 ft | 104 kts | 310° |
| 2026-05-08 03:37 | 37.71126 | -122.22900 | 109 ft | 151 kts | 307° |
| 2026-05-08 03:38 | 37.71786 | -122.23971 | 754 ft | 162 kts | 305° |
| 2026-05-08 03:38 | 37.72463 | -122.25109 | 1615 ft | 162 kts | 305° |
| 2026-05-08 03:38 | 37.73200 | -122.26357 | 1931 ft | 192 kts | 304° |
| 2026-05-08 03:38 | 37.74023 | -122.27853 | 1988 ft | 222 kts | 303° |
| 2026-05-08 03:39 | 37.74912 | -122.29514 | 2008 ft | 237 kts | 303° |
| 2026-05-08 03:39 | 37.75861 | -122.31305 | 2261 ft | 253 kts | 303° |
| 2026-05-08 03:39 | 37.77011 | -122.32996 | 3094 ft | 257 kts | 324° |
| 2026-05-08 03:39 | 37.78668 | -122.33842 | 3950 ft | 264 kts | 351° |
| 2026-05-08 03:40 | 37.80519 | -122.33766 | 4753 ft | 270 kts | 5° |
| 2026-05-08 03:40 | 37.82397 | -122.33432 | 5511 ft | 275 kts | 6° |
| 2026-05-08 03:40 | 37.84307 | -122.33084 | 6312 ft | 278 kts | 6° |
| 2026-05-08 03:40 | 37.85582 | -122.32857 | 6812 ft | 281 kts | 6° |
| 2026-05-08 03:41 | 37.87530 | -122.32511 | 7540 ft | 284 kts | 6° |
| 2026-05-08 03:41 | 37.89502 | -122.32160 | 8276 ft | 288 kts | 6° |
| 2026-05-08 03:41 | 37.91495 | -122.31802 | 9034 ft | 291 kts | 6° |
| 2026-05-08 03:41 | 37.93508 | -122.31436 | 9772 ft | 294 kts | 6° |
| 2026-05-08 03:42 | 37.95557 | -122.31061 | 10348 ft | 305 kts | 6° |
| 2026-05-08 03:42 | 37.97741 | -122.30666 | 10507 ft | 329 kts | 6° |
| 2026-05-08 03:42 | 38.00069 | -122.30252 | 10786 ft | 345 kts | 6° |
| 2026-05-08 03:42 | 38.02476 | -122.29826 | 11357 ft | 352 kts | 6° |
| 2026-05-08 03:43 | 38.04909 | -122.29397 | 12042 ft | 354 kts | 6° |
| 2026-05-08 03:43 | 38.07365 | -122.28966 | 12730 ft | 358 kts | 6° |
| 2026-05-08 03:43 | 38.09846 | -122.28533 | 13403 ft | 362 kts | 6° |
| 2026-05-08 03:44 | 38.11336 | -122.28275 | 13804 ft | 364 kts | 6° |
| 2026-05-08 03:44 | 38.13860 | -122.27838 | 14446 ft | 368 kts | 6° |
| 2026-05-08 03:44 | 38.16406 | -122.27400 | 15102 ft | 371 kts | 6° |
| 2026-05-08 03:44 | 38.18972 | -122.26963 | 15815 ft | 372 kts | 6° |
| 2026-05-08 03:45 | 38.21550 | -122.26527 | 16509 ft | 375 kts | 6° |
| 2026-05-08 03:45 | 38.24148 | -122.26092 | 17177 ft | 378 kts | 6° |
| 2026-05-08 03:45 | 38.26774 | -122.25656 | 17821 ft | 382 kts | 6° |
| 2026-05-08 03:45 | 38.29424 | -122.25222 | 18465 ft | 386 kts | 6° |
| 2026-05-08 03:46 | 38.32096 | -122.24787 | 19028 ft | 389 kts | 6° |
| 2026-05-08 03:46 | 38.34793 | -122.24347 | 19592 ft | 392 kts | 6° |
| 2026-05-08 03:46 | 38.37516 | -122.23900 | 20159 ft | 396 kts | 6° |
| 2026-05-08 03:46 | 38.40263 | -122.23445 | 20720 ft | 399 kts | 6° |
| 2026-05-08 03:47 | 38.43024 | -122.22987 | 21248 ft | 402 kts | 6° |
| 2026-05-08 03:47 | 38.45810 | -122.22524 | 21794 ft | 405 kts | 6° |
| 2026-05-08 03:47 | 38.48619 | -122.22057 | 22333 ft | 409 kts | 6° |
| 2026-05-08 03:47 | 38.51451 | -122.21587 | 22847 ft | 412 kts | 6° |
| 2026-05-08 03:48 | 38.54315 | -122.21113 | 23368 ft | 416 kts | 6° |
| 2026-05-08 03:48 | 38.57160 | -122.20642 | 23836 ft | 419 kts | 6° |
| 2026-05-08 03:48 | 38.60059 | -122.20163 | 24275 ft | 421 kts | 6° |
| 2026-05-08 03:48 | 38.62976 | -122.19679 | 24713 ft | 424 kts | 6° |
| 2026-05-08 03:49 | 38.65911 | -122.19193 | 25147 ft | 427 kts | 6° |
| 2026-05-08 03:49 | 38.68866 | -122.18702 | 25574 ft | 429 kts | 6° |
| 2026-05-08 03:49 | 38.71833 | -122.18210 | 25997 ft | 431 kts | 6° |
| 2026-05-08 03:49 | 38.74820 | -122.17714 | 26395 ft | 434 kts | 6° |
| 2026-05-08 03:50 | 38.77825 | -122.17214 | 26789 ft | 437 kts | 6° |
| 2026-05-08 03:50 | 38.80847 | -122.16713 | 27226 ft | 438 kts | 5° |
| 2026-05-08 03:50 | 38.83854 | -122.16643 | 27612 ft | 438 kts | 354° |
| 2026-05-08 03:50 | 38.86880 | -122.17148 | 28022 ft | 439 kts | 349° |
| 2026-05-08 03:51 | 38.89898 | -122.17845 | 28383 ft | 442 kts | 348° |
| 2026-05-08 03:51 | 38.92937 | -122.18553 | 28736 ft | 445 kts | 349° |
| 2026-05-08 03:51 | 38.96002 | -122.19200 | 29089 ft | 448 kts | 350° |
| 2026-05-08 03:51 | 38.99093 | -122.19776 | 29444 ft | 450 kts | 351° |
| 2026-05-08 03:52 | 39.02210 | -122.20294 | 29799 ft | 452 kts | 352° |
| 2026-05-08 03:52 | 39.05346 | -122.20773 | 30124 ft | 455 kts | 352° |
| 2026-05-08 03:52 | 39.08497 | -122.21232 | 30406 ft | 457 kts | 352° |
| 2026-05-08 03:52 | 39.11661 | -122.21682 | 30704 ft | 458 kts | 352° |
| 2026-05-08 03:53 | 39.14867 | -122.22135 | 31090 ft | 457 kts | 352° |
| 2026-05-08 03:53 | 39.18019 | -122.22581 | 31538 ft | 454 kts | 352° |
| 2026-05-08 03:53 | 39.21150 | -122.23027 | 31976 ft | 452 kts | 352° |
| 2026-05-08 03:53 | 39.24269 | -122.23474 | 32349 ft | 451 kts | 352° |
| 2026-05-08 03:54 | 39.27384 | -122.23922 | 32711 ft | 450 kts | 352° |
| 2026-05-08 03:54 | 39.30499 | -122.24372 | 33100 ft | 449 kts | 352° |
| 2026-05-08 03:54 | 39.33593 | -122.24819 | 33504 ft | 447 kts | 352° |
| 2026-05-08 03:54 | 39.36682 | -122.25266 | 33886 ft | 445 kts | 352° |
| 2026-05-08 03:55 | 39.39758 | -122.25712 | 34210 ft | 444 kts | 352° |
| 2026-05-08 03:55 | 39.42820 | -122.26156 | 34522 ft | 443 kts | 352° |
| 2026-05-08 03:55 | 39.45880 | -122.26600 | 34852 ft | 441 kts | 352° |
| 2026-05-08 03:55 | 39.48928 | -122.27043 | 35161 ft | 440 kts | 352° |
| 2026-05-08 03:56 | 39.51974 | -122.27486 | 35471 ft | 439 kts | 352° |
| 2026-05-08 03:56 | 39.54962 | -122.27920 | 35773 ft | 438 kts | 352° |
| 2026-05-08 03:56 | 39.58018 | -122.28365 | 36087 ft | 436 kts | 352° |
| 2026-05-08 03:56 | 39.61034 | -122.28805 | 36385 ft | 435 kts | 352° |
| 2026-05-08 03:57 | 39.64032 | -122.29242 | 36640 ft | 434 kts | 352° |
| 2026-05-08 03:57 | 39.67032 | -122.29680 | 36914 ft | 433 kts | 352° |
| 2026-05-08 03:57 | 39.70024 | -122.30118 | 37204 ft | 432 kts | 352° |
| 2026-05-08 03:57 | 39.72969 | -122.30548 | 37472 ft | 431 kts | 352° |
| 2026-05-08 03:58 | 39.75943 | -122.30984 | 37728 ft | 430 kts | 352° |
| 2026-05-08 03:58 | 39.78917 | -122.31419 | 37978 ft | 429 kts | 352° |
| 2026-05-08 03:58 | 39.81892 | -122.31856 | 37998 ft | 432 kts | 352° |
| 2026-05-08 03:59 | 39.87860 | -122.32733 | 38019 ft | 430 kts | 352° |
| 2026-05-08 03:59 | 39.93778 | -122.33603 | 38031 ft | 426 kts | 352° |
| 2026-05-08 04:00 | 39.99651 | -122.34467 | 38034 ft | 423 kts | 352° |
| 2026-05-08 04:00 | 40.05494 | -122.35330 | 38035 ft | 421 kts | 352° |
| 2026-05-08 04:01 | 40.11316 | -122.36191 | 38041 ft | 421 kts | 352° |
| 2026-05-08 04:01 | 40.17134 | -122.37053 | 38044 ft | 421 kts | 352° |
| 2026-05-08 04:02 | 40.22965 | -122.37919 | 38041 ft | 423 kts | 352° |
| 2026-05-08 04:02 | 40.28826 | -122.38790 | 38039 ft | 424 kts | 352° |
| 2026-05-08 04:03 | 40.34708 | -122.39666 | 38036 ft | 427 kts | 352° |
| 2026-05-08 04:03 | 40.43596 | -122.40992 | 38030 ft | 429 kts | 352° |
| 2026-05-08 04:04 | 40.49538 | -122.41880 | 38032 ft | 431 kts | 352° |
| 2026-05-08 04:04 | 40.55506 | -122.42774 | 38032 ft | 431 kts | 352° |
| 2026-05-08 04:05 | 40.61441 | -122.43665 | 38025 ft | 432 kts | 352° |
| 2026-05-08 04:05 | 40.67402 | -122.44561 | 38027 ft | 431 kts | 352° |
| 2026-05-08 04:06 | 40.73356 | -122.45458 | 38033 ft | 430 kts | 352° |
| 2026-05-08 04:06 | 40.79296 | -122.46354 | 38056 ft | 429 kts | 352° |
| 2026-05-08 04:07 | 40.85216 | -122.47249 | 38070 ft | 427 kts | 352° |
| 2026-05-08 04:07 | 40.91119 | -122.48143 | 38101 ft | 426 kts | 352° |
| 2026-05-08 04:08 | 40.97005 | -122.49035 | 38089 ft | 425 kts | 352° |
| 2026-05-08 04:08 | 41.02884 | -122.49929 | 38102 ft | 424 kts | 352° |
| 2026-05-08 04:09 | 41.08712 | -122.50816 | 38100 ft | 424 kts | 352° |
| 2026-05-08 04:09 | 41.14575 | -122.51711 | 38121 ft | 424 kts | 352° |
| 2026-05-08 04:10 | 41.20437 | -122.52607 | 38118 ft | 424 kts | 352° |
| 2026-05-08 04:10 | 41.26307 | -122.53505 | 38127 ft | 425 kts | 352° |
| 2026-05-08 04:11 | 41.32186 | -122.54407 | 38124 ft | 425 kts | 352° |
| 2026-05-08 04:11 | 41.38070 | -122.55311 | 38120 ft | 426 kts | 352° |
| 2026-05-08 04:12 | 41.43971 | -122.56219 | 38110 ft | 427 kts | 352° |
| 2026-05-08 04:12 | 41.49884 | -122.57131 | 38094 ft | 428 kts | 352° |
| 2026-05-08 04:13 | 41.55811 | -122.57886 | 38091 ft | 428 kts | 355° |
| 2026-05-08 04:13 | 41.61756 | -122.58232 | 38084 ft | 428 kts | 356° |
| 2026-05-08 04:14 | 41.67696 | -122.58547 | 38082 ft | 427 kts | 356° |
| 2026-05-08 04:14 | 41.73637 | -122.58908 | 38082 ft | 427 kts | 355° |
| 2026-05-08 04:15 | 41.79563 | -122.59293 | 38083 ft | 426 kts | 355° |
| 2026-05-08 04:15 | 41.85492 | -122.59682 | 38083 ft | 426 kts | 355° |
| 2026-05-08 04:16 | 41.91413 | -122.60071 | 38082 ft | 426 kts | 355° |
| 2026-05-08 04:16 | 41.97331 | -122.60460 | 38070 ft | 426 kts | 355° |
| 2026-05-08 04:17 | 42.03261 | -122.60850 | 38070 ft | 426 kts | 355° |
| 2026-05-08 04:17 | 42.09143 | -122.61238 | 38051 ft | 426 kts | 355° |
| 2026-05-08 04:18 | 42.15036 | -122.61627 | 38039 ft | 426 kts | 355° |
| 2026-05-08 04:18 | 42.20958 | -122.62020 | 38052 ft | 426 kts | 355° |
| 2026-05-08 04:19 | 42.26877 | -122.62414 | 38032 ft | 426 kts | 355° |
| 2026-05-08 04:19 | 42.32801 | -122.62810 | 38043 ft | 426 kts | 355° |
| 2026-05-08 04:20 | 42.38731 | -122.63206 | 38045 ft | 427 kts | 355° |
| 2026-05-08 04:20 | 42.44665 | -122.63604 | 38044 ft | 427 kts | 355° |
| 2026-05-08 04:21 | 42.50596 | -122.64001 | 38040 ft | 427 kts | 355° |
| 2026-05-08 04:21 | 42.56525 | -122.64400 | 38037 ft | 426 kts | 355° |
| 2026-05-08 04:22 | 42.62414 | -122.64797 | 38035 ft | 426 kts | 355° |
| 2026-05-08 04:22 | 42.68336 | -122.65197 | 38041 ft | 426 kts | 355° |
| 2026-05-08 04:23 | 42.74255 | -122.65597 | 38038 ft | 425 kts | 355° |
| 2026-05-08 04:23 | 42.80159 | -122.65997 | 38052 ft | 424 kts | 355° |
| 2026-05-08 04:24 | 42.86053 | -122.66397 | 38051 ft | 424 kts | 354° |
| 2026-05-08 04:24 | 42.91938 | -122.66786 | 38062 ft | 423 kts | 354° |
| 2026-05-08 04:25 | 42.97819 | -122.67171 | 38070 ft | 423 kts | 354° |
| 2026-05-08 04:25 | 43.02696 | -122.67612 | 38061 ft | 422 kts | 354° |
| 2026-05-08 04:26 | 43.08569 | -122.67993 | 38055 ft | 422 kts | 355° |
| 2026-05-08 04:26 | 43.14435 | -122.68353 | 38074 ft | 421 kts | 354° |
| 2026-05-08 04:27 | 43.20288 | -122.68740 | 38060 ft | 421 kts | 354° |
| 2026-05-08 04:27 | 43.26137 | -122.69141 | 38073 ft | 421 kts | 354° |
| 2026-05-08 04:28 | 43.31994 | -122.69545 | 38068 ft | 421 kts | 354° |
| 2026-05-08 04:28 | 43.37856 | -122.69949 | 38061 ft | 421 kts | 354° |
| 2026-05-08 04:29 | 43.43715 | -122.70353 | 37755 ft | 426 kts | 354° |
| 2026-05-08 04:29 | 43.46681 | -122.70558 | 37306 ft | 425 kts | 354° |
| 2026-05-08 04:29 | 43.49621 | -122.70760 | 36775 ft | 423 kts | 354° |
| 2026-05-08 04:30 | 43.52556 | -122.70961 | 36215 ft | 421 kts | 354° |
| 2026-05-08 04:30 | 43.55481 | -122.71163 | 35641 ft | 421 kts | 354° |
| 2026-05-08 04:30 | 43.58439 | -122.71369 | 35044 ft | 433 kts | 354° |
| 2026-05-08 04:30 | 43.61491 | -122.71584 | 34412 ft | 444 kts | 354° |
| 2026-05-08 04:31 | 43.64587 | -122.71800 | 33688 ft | 445 kts | 354° |
| 2026-05-08 04:31 | 43.67675 | -122.72013 | 33147 ft | 442 kts | 354° |
| 2026-05-08 04:31 | 43.70731 | -122.72222 | 32654 ft | 437 kts | 354° |
| 2026-05-08 04:31 | 43.73712 | -122.72427 | 32180 ft | 433 kts | 354° |
| 2026-05-08 04:32 | 43.76706 | -122.72634 | 31727 ft | 428 kts | 354° |
| 2026-05-08 04:32 | 43.79669 | -122.72839 | 31280 ft | 424 kts | 354° |
| 2026-05-08 04:32 | 43.82596 | -122.73043 | 30834 ft | 421 kts | 354° |
| 2026-05-08 04:32 | 43.85509 | -122.73247 | 30388 ft | 417 kts | 354° |
| 2026-05-08 04:33 | 43.88398 | -122.73449 | 29918 ft | 414 kts | 354° |
| 2026-05-08 04:33 | 43.91263 | -122.73649 | 29412 ft | 410 kts | 354° |
| 2026-05-08 04:33 | 43.94099 | -122.73848 | 28968 ft | 405 kts | 354° |
| 2026-05-08 04:33 | 43.96904 | -122.74044 | 28500 ft | 401 kts | 354° |
| 2026-05-08 04:34 | 43.99678 | -122.74239 | 28055 ft | 397 kts | 354° |
| 2026-05-08 04:34 | 44.02429 | -122.74432 | 27629 ft | 394 kts | 354° |
| 2026-05-08 04:34 | 44.05156 | -122.74625 | 27179 ft | 391 kts | 354° |
| 2026-05-08 04:34 | 44.07856 | -122.74815 | 26746 ft | 388 kts | 354° |
| 2026-05-08 04:35 | 44.10542 | -122.75005 | 26311 ft | 385 kts | 354° |
| 2026-05-08 04:35 | 44.13206 | -122.75193 | 25895 ft | 382 kts | 353° |
| 2026-05-08 04:35 | 44.15861 | -122.75328 | 25461 ft | 383 kts | 356° |
| 2026-05-08 04:35 | 44.18527 | -122.75177 | 25054 ft | 384 kts | 360° |
| 2026-05-08 04:36 | 44.21199 | -122.74886 | 24599 ft | 388 kts | 1° |
| 2026-05-08 04:36 | 44.23905 | -122.74559 | 24166 ft | 393 kts | 1° |
| 2026-05-08 04:36 | 44.26642 | -122.74235 | 23722 ft | 396 kts | 0° |
| 2026-05-08 04:36 | 44.29392 | -122.73928 | 23203 ft | 396 kts | 0° |
| 2026-05-08 04:37 | 44.32121 | -122.73638 | 22735 ft | 392 kts | 0° |
| 2026-05-08 04:37 | 44.34839 | -122.73360 | 22290 ft | 389 kts | 360° |
| 2026-05-08 04:37 | 44.37528 | -122.73091 | 21848 ft | 386 kts | 360° |
| 2026-05-08 04:37 | 44.40198 | -122.72827 | 21421 ft | 383 kts | 360° |
| 2026-05-08 04:38 | 44.42847 | -122.72566 | 21010 ft | 380 kts | 360° |
| 2026-05-08 04:38 | 44.45472 | -122.72307 | 20577 ft | 377 kts | 360° |
| 2026-05-08 04:38 | 44.48082 | -122.72049 | 20153 ft | 375 kts | 360° |
| 2026-05-08 04:38 | 44.50677 | -122.71792 | 19735 ft | 373 kts | 360° |
| 2026-05-08 04:39 | 44.53262 | -122.71535 | 19321 ft | 371 kts | 360° |
| 2026-05-08 04:39 | 44.55826 | -122.71281 | 18903 ft | 369 kts | 360° |
| 2026-05-08 04:39 | 44.58388 | -122.71027 | 18469 ft | 368 kts | 360° |
| 2026-05-08 04:39 | 44.60936 | -122.70772 | 17997 ft | 364 kts | 360° |
| 2026-05-08 04:40 | 44.63446 | -122.70519 | 17563 ft | 360 kts | 360° |
| 2026-05-08 04:40 | 44.65943 | -122.70268 | 17080 ft | 359 kts | 360° |
| 2026-05-08 04:40 | 44.68430 | -122.70018 | 16655 ft | 357 kts | 0° |
| 2026-05-08 04:40 | 44.70904 | -122.69770 | 16245 ft | 355 kts | 0° |
| 2026-05-08 04:41 | 44.73352 | -122.69524 | 15837 ft | 352 kts | 0° |
| 2026-05-08 04:41 | 44.75793 | -122.69278 | 15434 ft | 350 kts | 0° |
| 2026-05-08 04:41 | 44.78216 | -122.69034 | 15026 ft | 348 kts | 0° |
| 2026-05-08 04:41 | 44.80630 | -122.68791 | 14661 ft | 346 kts | 0° |
| 2026-05-08 04:42 | 44.83004 | -122.68551 | 14433 ft | 339 kts | 0° |
| 2026-05-08 04:42 | 44.85333 | -122.68316 | 14196 ft | 333 kts | 0° |
| 2026-05-08 04:42 | 44.87633 | -122.68084 | 13965 ft | 330 kts | 0° |
| 2026-05-08 04:42 | 44.89922 | -122.67855 | 13719 ft | 330 kts | 0° |
| 2026-05-08 04:43 | 44.92204 | -122.67625 | 13458 ft | 325 kts | 0° |
| 2026-05-08 04:43 | 44.94433 | -122.67399 | 13196 ft | 318 kts | 0° |
| 2026-05-08 04:43 | 44.96615 | -122.67177 | 12930 ft | 311 kts | 0° |
| 2026-05-08 04:43 | 44.98787 | -122.66958 | 12356 ft | 316 kts | 0° |
| 2026-05-08 04:44 | 45.00966 | -122.66739 | 11975 ft | 313 kts | 0° |
| 2026-05-08 04:44 | 45.03135 | -122.66518 | 11624 ft | 312 kts | 0° |
| 2026-05-08 04:44 | 45.05300 | -122.66299 | 11282 ft | 312 kts | 0° |
| 2026-05-08 04:44 | 45.07461 | -122.66080 | 10947 ft | 311 kts | 0° |
| 2026-05-08 04:45 | 45.09588 | -122.65863 | 10621 ft | 311 kts | 0° |
| 2026-05-08 04:45 | 45.11744 | -122.65644 | 10267 ft | 310 kts | 0° |
| 2026-05-08 04:45 | 45.13885 | -122.65426 | 9934 ft | 307 kts | 0° |
| 2026-05-08 04:45 | 45.15962 | -122.65212 | 9680 ft | 297 kts | 0° |
| 2026-05-08 04:46 | 45.18039 | -122.65002 | 9282 ft | 299 kts | 0° |
| 2026-05-08 04:46 | 45.20115 | -122.64792 | 8909 ft | 299 kts | 0° |
| 2026-05-08 04:46 | 45.22168 | -122.64580 | 8562 ft | 293 kts | 0° |
| 2026-05-08 04:46 | 45.24190 | -122.64349 | 8254 ft | 291 kts | 5° |
| 2026-05-08 04:47 | 45.26090 | -122.63345 | 7942 ft | 296 kts | 28° |
| 2026-05-08 04:47 | 45.27832 | -122.61793 | 7644 ft | 296 kts | 30° |
| 2026-05-08 04:47 | 45.29567 | -122.60208 | 7276 ft | 297 kts | 29° |
| 2026-05-08 04:47 | 45.31299 | -122.58615 | 6991 ft | 296 kts | 29° |
| 2026-05-08 04:48 | 45.33038 | -122.57035 | 6691 ft | 295 kts | 29° |
| 2026-05-08 04:48 | 45.34771 | -122.55467 | 6386 ft | 296 kts | 29° |
| 2026-05-08 04:48 | 45.36467 | -122.53934 | 6201 ft | 286 kts | 29° |
| 2026-05-08 04:48 | 45.38124 | -122.52439 | 6054 ft | 272 kts | 29° |
| 2026-05-08 04:49 | 45.39687 | -122.51032 | 5951 ft | 261 kts | 29° |
| 2026-05-08 04:49 | 45.41201 | -122.49665 | 5781 ft | 254 kts | 30° |
| 2026-05-08 04:49 | 45.42637 | -122.48209 | 5633 ft | 257 kts | 45° |
| 2026-05-08 04:49 | 45.43502 | -122.45983 | 5489 ft | 263 kts | 78° |
| 2026-05-08 04:50 | 45.43417 | -122.43425 | 5335 ft | 259 kts | 111° |
| 2026-05-08 04:50 | 45.42639 | -122.41154 | 5198 ft | 253 kts | 121° |
| 2026-05-08 04:50 | 45.41775 | -122.38992 | 5051 ft | 249 kts | 122° |
| 2026-05-08 04:50 | 45.40934 | -122.36878 | 4990 ft | 241 kts | 120° |
| 2026-05-08 04:51 | 45.40150 | -122.34831 | 4973 ft | 232 kts | 120° |
| 2026-05-08 04:51 | 45.39398 | -122.32873 | 4989 ft | 219 kts | 120° |
| 2026-05-08 04:51 | 45.38676 | -122.30999 | 4983 ft | 214 kts | 120° |
| 2026-05-08 04:51 | 45.37958 | -122.29120 | 4988 ft | 218 kts | 121° |
| 2026-05-08 04:52 | 45.37254 | -122.27201 | 4917 ft | 218 kts | 112° |
| 2026-05-08 04:52 | 45.37117 | -122.25089 | 4662 ft | 216 kts | 76° |
| 2026-05-08 04:52 | 45.37840 | -122.23289 | 4484 ft | 210 kts | 40° |
| 2026-05-08 04:52 | 45.39106 | -122.22386 | 4205 ft | 203 kts | 5° |
| 2026-05-08 04:53 | 45.40512 | -122.22434 | 3985 ft | 201 kts | 347° |
| 2026-05-08 04:53 | 45.41888 | -122.22863 | 3783 ft | 205 kts | 342° |
| 2026-05-08 04:53 | 45.43264 | -122.23414 | 3771 ft | 205 kts | 341° |
| 2026-05-08 04:53 | 45.44627 | -122.23998 | 3723 ft | 204 kts | 338° |
| 2026-05-08 04:54 | 45.45715 | -122.25154 | 3700 ft | 193 kts | 300° |
| 2026-05-08 04:54 | 45.46472 | -122.26730 | 3738 ft | 194 kts | 306° |
| 2026-05-08 04:54 | 45.47284 | -122.28277 | 3693 ft | 194 kts | 301° |
| 2026-05-08 04:54 | 45.47974 | -122.29890 | 3696 ft | 186 kts | 298° |
| 2026-05-08 04:55 | 45.48602 | -122.31466 | 3696 ft | 183 kts | 297° |
| 2026-05-08 04:55 | 45.49219 | -122.33062 | 3647 ft | 185 kts | 297° |
| 2026-05-08 04:55 | 45.49848 | -122.34702 | 3414 ft | 191 kts | 296° |
| 2026-05-08 04:55 | 45.50495 | -122.36375 | 3150 ft | 193 kts | 296° |
| 2026-05-08 04:56 | 45.51137 | -122.38041 | 2905 ft | 192 kts | 297° |
| 2026-05-08 04:56 | 45.51778 | -122.39699 | 2631 ft | 189 kts | 298° |
| 2026-05-08 04:56 | 45.52407 | -122.41324 | 2392 ft | 187 kts | 300° |
| 2026-05-08 04:56 | 45.53031 | -122.42934 | 2132 ft | 184 kts | 301° |
| 2026-05-08 04:57 | 45.53641 | -122.44512 | 1901 ft | 179 kts | 301° |
| 2026-05-08 04:57 | 45.54218 | -122.46034 | 1670 ft | 169 kts | 300° |
| 2026-05-08 04:57 | 45.54779 | -122.47462 | 1445 ft | 161 kts | 301° |
| 2026-05-08 04:57 | 45.55301 | -122.48802 | 1284 ft | 145 kts | 301° |
| 2026-05-08 04:58 | 45.55797 | -122.50079 | 1095 ft | 148 kts | 300° |
| 2026-05-08 04:58 | 45.56306 | -122.51395 | 896 ft | 154 kts | 300° |
| 2026-05-08 04:58 | 45.56818 | -122.52712 | 703 ft | 149 kts | 300° |
| 2026-05-08 04:58 | 45.57316 | -122.53987 | 521 ft | 147 kts | 298° |
| 2026-05-08 04:59 | 45.57810 | -122.55277 | 294 ft | 148 kts | 299° |
| 2026-05-08 04:59 | 45.58302 | -122.56546 | 90 ft | 143 kts | 299° |
| 2026-05-08 04:59 | 45.58753 | -122.57713 | 29 ft | 109 kts | 300° |
| 2026-05-08 04:59 | 45.58986 | -122.58314 | 29 ft | 52 kts | 291° |
| 2026-05-08 05:00 | 45.59028 | -122.58591 | 30 ft | 13 kts | 274° |
| 2026-05-08 05:00 | 45.59030 | -122.58652 | 30 ft | 0 kts | 272° |
| 2026-05-08 05:00 | 45.59031 | -122.58658 | 30 ft | 2 kts | 273° |
| 2026-05-08 05:00 | 45.59032 | -122.58698 | 30 ft | 7 kts | 273° |
| 2026-05-08 05:01 | 45.59034 | -122.58773 | 30 ft | 8 kts | 268° |
| 2026-05-08 05:01 | 45.59026 | -122.58842 | 28 ft | 6 kts | 243° |
| 2026-05-08 05:01 | 45.59000 | -122.58854 | 29 ft | 3 kts | 159° |
| 2026-05-08 05:01 | 45.58986 | -122.58829 | 30 ft | 4 kts | 120° |
| 2026-05-08 05:02 | 45.58964 | -122.58782 | 30 ft | 6 kts | 147° |
| 2026-05-08 05:02 | 45.58937 | -122.58789 | 30 ft | 1 kts | 206° |
| 2026-05-08 05:02 | 45.58927 | -122.58797 | 30 ft | 1 kts | 207° |
| 2026-05-08 05:02 | 45.58918 | -122.58804 | 29 ft | 1 kts | 210° |
| 2026-05-08 05:03 | 45.58910 | -122.58811 | 27 ft | 1 kts | 209° |
| 2026-05-08 05:03 | 45.58904 | -122.58815 | 29 ft | 0 kts | 210° |